createdAt,value
2022-10-28T00:01:17.078Z,75.86
2022-10-28T00:03:46.994Z,75.63
2022-10-28T00:06:17.782Z,75.42
2022-10-28T00:08:47.268Z,75.50
2022-10-28T00:11:17.636Z,75.37
2022-10-28T00:13:46.651Z,75.47
2022-10-28T00:16:18.554Z,75.38
2022-10-28T00:18:47.959Z,75.31
2022-10-28T00:21:17.567Z,75.25
2022-10-28T00:23:46.337Z,75.20
2022-10-28T00:26:16.818Z,75.27
2022-10-28T00:28:46.820Z,75.24
2022-10-28T00:31:18.331Z,75.28
2022-10-28T00:33:47.439Z,75.29
2022-10-28T00:36:17.389Z,75.45
2022-10-28T00:38:47.095Z,75.49
2022-10-28T00:41:17.668Z,75.46
2022-10-28T00:43:48.243Z,75.37
2022-10-28T00:46:27.166Z,75.41
2022-10-28T00:48:59.801Z,75.28
2022-10-28T00:51:29.559Z,75.41
2022-10-28T00:53:58.240Z,75.43
2022-10-28T00:56:30.359Z,75.54
2022-10-28T00:59:02.284Z,75.63
2022-10-28T01:01:32.239Z,75.70
2022-10-28T01:04:01.779Z,75.56
2022-10-28T01:06:30.779Z,75.49
2022-10-28T01:09:00.168Z,75.57
2022-10-28T01:11:52.379Z,75.41
2022-10-28T01:14:31.091Z,75.23
2022-10-28T01:17:17.055Z,75.43
2022-10-28T01:20:15.275Z,75.56
2022-10-28T01:22:52.675Z,75.47
2022-10-28T01:25:46.975Z,75.59
2022-10-28T01:28:31.426Z,75.59
2022-10-28T01:31:20.686Z,75.54
2022-10-28T01:33:53.743Z,75.47
2022-10-28T01:36:35.200Z,75.63
2022-10-28T01:39:12.696Z,75.68
2022-10-28T01:41:50.132Z,75.60
2022-10-28T01:44:25.410Z,75.71
2022-10-28T01:47:01.295Z,75.75
2022-10-28T01:49:39.287Z,75.68
2022-10-28T01:52:12.218Z,75.69
2022-10-28T01:54:42.968Z,75.60
2022-10-28T01:57:15.906Z,75.75
2022-10-28T01:59:46.499Z,75.54
2022-10-28T02:02:18.686Z,75.43
2022-10-28T02:04:47.044Z,75.47
2022-10-28T02:07:16.116Z,75.58
2022-10-28T02:10:02.607Z,75.62
2022-10-28T02:12:32.624Z,75.50
2022-10-28T02:15:15.619Z,75.59
2022-10-28T02:17:57.027Z,75.56
2022-10-28T02:20:35.878Z,75.55
2022-10-28T02:23:16.795Z,75.68
2022-10-28T02:25:52.204Z,75.69
2022-10-28T02:28:25.542Z,75.64
2022-10-28T02:30:58.084Z,75.67
2022-10-28T02:33:32.303Z,75.70
2022-10-28T02:36:04.854Z,75.83
2022-10-28T02:38:35.948Z,76.09
2022-10-28T02:41:09.250Z,76.29
2022-10-28T02:43:39.217Z,76.47
2022-10-28T02:46:09.550Z,76.47
2022-10-28T02:48:43.458Z,76.54
2022-10-28T02:51:15.046Z,76.44
2022-10-28T02:53:51.484Z,76.44
2022-10-28T02:56:21.764Z,76.42
2022-10-28T02:58:50.132Z,76.40
2022-10-28T03:01:18.532Z,76.45
2022-10-28T03:03:48.087Z,76.56
2022-10-28T03:06:16.305Z,76.53
2022-10-28T03:08:44.539Z,76.59
2022-10-28T03:11:13.115Z,76.56
2022-10-28T03:13:41.249Z,76.57
2022-10-28T03:16:09.587Z,76.47
2022-10-28T03:18:37.734Z,76.50
2022-10-28T03:21:07.344Z,76.42
2022-10-28T03:23:35.902Z,76.40
2022-10-28T03:26:04.012Z,76.34
2022-10-28T03:28:32.094Z,76.32
2022-10-28T03:31:00.239Z,76.27
2022-10-28T03:33:28.565Z,76.30
2022-10-28T03:35:56.856Z,76.18
2022-10-28T03:38:26.784Z,76.25
2022-10-28T03:40:54.919Z,76.23
2022-10-28T03:43:23.080Z,76.25
2022-10-28T03:45:51.179Z,76.21
2022-10-28T03:48:19.489Z,76.20
2022-10-28T03:50:47.613Z,76.22
2022-10-28T03:53:15.722Z,76.04
2022-10-28T03:55:45.275Z,75.73
2022-10-28T03:58:13.417Z,75.76
2022-10-28T04:00:41.829Z,75.76
2022-10-28T04:03:10.468Z,75.80
2022-10-28T04:05:38.755Z,75.93
2022-10-28T04:08:06.928Z,75.91
2022-10-28T04:10:35.280Z,75.96
2022-10-28T04:13:05.995Z,75.95
2022-10-28T04:15:34.532Z,76.02
2022-10-28T04:18:02.938Z,76.03
2022-10-28T04:20:31.571Z,75.89
2022-10-28T04:23:00.073Z,75.81
2022-10-28T04:25:29.244Z,75.84
2022-10-28T04:27:57.422Z,75.96
2022-10-28T04:30:26.938Z,75.97
2022-10-28T04:32:55.083Z,76.05
2022-10-28T04:35:23.318Z,76.18
2022-10-28T04:37:51.662Z,76.19
2022-10-28T04:40:20.347Z,76.15
2022-10-28T04:42:48.484Z,76.17
2022-10-28T04:45:16.844Z,76.07
2022-10-28T04:47:46.437Z,76.10
2022-10-28T04:50:14.658Z,75.92
2022-10-28T04:52:43.231Z,76.00
2022-10-28T04:55:11.987Z,76.05
2022-10-28T04:57:40.157Z,76.12
2022-10-28T05:00:10.074Z,76.12
2022-10-28T05:02:41.481Z,76.09
2022-10-28T05:05:14.582Z,76.22
2022-10-28T05:07:42.838Z,76.09
2022-10-28T05:10:12.299Z,76.08
2022-10-28T05:12:43.030Z,76.08
2022-10-28T05:15:13.147Z,76.18
2022-10-28T05:17:41.858Z,76.17
2022-10-28T05:20:12.160Z,76.18
2022-10-28T05:22:47.534Z,76.15
2022-10-28T05:25:16.044Z,76.18
2022-10-28T05:27:44.220Z,76.18
2022-10-28T05:30:13.634Z,76.14
2022-10-28T05:32:41.892Z,76.06
2022-10-28T05:35:11.131Z,76.13
2022-10-28T05:37:39.358Z,76.12
2022-10-28T05:40:10.508Z,76.14
2022-10-28T05:42:42.558Z,76.08
2022-10-28T05:45:11.715Z,76.07
2022-10-28T05:47:44.174Z,76.10
2022-10-28T05:50:12.670Z,76.15
2022-10-28T05:52:40.996Z,76.18
2022-10-28T05:55:11.450Z,76.15
2022-10-28T05:57:39.596Z,75.99
2022-10-28T06:00:09.174Z,76.07
2022-10-28T06:02:43.829Z,76.06
2022-10-28T06:05:12.870Z,75.93
2022-10-28T06:07:42.285Z,75.99
2022-10-28T06:10:13.004Z,76.03
2022-10-28T06:12:39.671Z,76.08
2022-10-28T06:15:08.484Z,76.16
2022-10-28T06:17:36.814Z,76.14
2022-10-28T06:20:05.972Z,76.01
2022-10-28T06:22:34.251Z,75.83
2022-10-28T06:25:02.538Z,75.88
2022-10-28T06:27:32.093Z,75.96
2022-10-28T06:30:00.225Z,75.88
2022-10-28T06:32:28.347Z,76.04
2022-10-28T06:34:57.049Z,76.10
2022-10-28T06:37:25.303Z,76.15
2022-10-28T06:39:53.437Z,76.15
2022-10-28T06:42:21.518Z,76.13
2022-10-28T06:44:51.198Z,75.86
2022-10-28T06:47:20.888Z,76.07
2022-10-28T06:49:49.021Z,75.88
2022-10-28T06:52:17.250Z,75.76
2022-10-28T06:54:45.755Z,75.85
2022-10-28T06:57:14.045Z,75.73
2022-10-28T06:59:42.215Z,75.49
2022-10-28T07:02:12.976Z,75.42
2022-10-28T07:04:44.034Z,75.41
2022-10-28T07:07:12.387Z,75.60
2022-10-28T07:09:42.422Z,75.42
2022-10-28T07:12:10.558Z,75.38
2022-10-28T07:14:39.223Z,75.33
2022-10-28T07:17:07.353Z,75.41
2022-10-28T07:19:36.848Z,75.23
2022-10-28T07:22:05.294Z,75.27
2022-10-28T07:24:33.441Z,75.10
2022-10-28T07:27:01.619Z,75.15
2022-10-28T07:29:29.901Z,75.11
2022-10-28T07:31:58.054Z,74.94
2022-10-28T07:34:27.646Z,75.14
2022-10-28T07:36:57.533Z,74.76
2022-10-28T07:39:25.773Z,75.33
2022-10-28T07:41:54.013Z,74.75
2022-10-28T07:44:22.197Z,74.82
2022-10-28T07:46:54.238Z,74.81
2022-10-28T07:49:25.510Z,74.80
2022-10-28T07:51:53.713Z,74.57
2022-10-28T07:54:23.245Z,75.03
2022-10-28T07:56:51.464Z,74.94
2022-10-28T07:59:25.759Z,74.79
2022-10-28T08:01:55.656Z,74.67
2022-10-28T08:04:23.962Z,74.50
2022-10-28T08:06:52.221Z,74.75
2022-10-28T08:09:20.385Z,74.81
2022-10-28T08:11:49.991Z,74.56
2022-10-28T08:14:18.172Z,74.51
2022-10-28T08:16:47.323Z,74.80
2022-10-28T08:19:15.934Z,74.64
2022-10-28T08:21:44.163Z,74.83
2022-10-28T08:24:12.519Z,74.35
2022-10-28T08:26:40.808Z,74.54
2022-10-28T08:29:12.047Z,74.44
2022-10-28T08:31:40.279Z,74.32
2022-10-28T08:34:09.139Z,74.38
2022-10-28T08:36:37.757Z,74.64
2022-10-28T08:39:06.412Z,74.23
2022-10-28T08:41:39.890Z,73.98
2022-10-28T08:44:38.648Z,74.20
2022-10-28T08:47:25.068Z,73.97
2022-10-28T08:49:59.599Z,74.22
2022-10-28T08:52:34.120Z,73.66
2022-10-28T08:55:05.586Z,73.60
2022-10-28T08:57:40.054Z,73.57
2022-10-28T09:00:20.374Z,73.46
2022-10-28T09:03:09.582Z,73.57
2022-10-28T09:05:38.741Z,73.10
2022-10-28T09:08:07.466Z,72.96
2022-10-28T09:10:49.537Z,72.80
2022-10-28T09:13:29.159Z,72.51
2022-10-28T09:16:10.232Z,72.40
2022-10-28T09:18:52.490Z,72.66
2022-10-28T09:21:29.613Z,71.66
2022-10-28T09:23:59.143Z,71.67
2022-10-28T09:26:38.680Z,71.06
2022-10-28T09:29:21.729Z,72.06
2022-10-28T09:31:55.056Z,71.35
2022-10-28T09:34:31.349Z,70.61
2022-10-28T09:37:05.673Z,71.24
2022-10-28T09:39:43.041Z,70.95
2022-10-28T09:42:18.613Z,71.14
2022-10-28T09:44:50.414Z,71.26
2022-10-28T09:47:23.770Z,71.03
2022-10-28T09:49:54.269Z,70.88
2022-10-28T09:52:26.217Z,70.74
2022-10-28T09:54:56.245Z,70.65
2022-10-28T09:57:29.871Z,71.49
2022-10-28T09:59:58.204Z,70.00
2022-10-28T10:02:30.548Z,70.33
2022-10-28T10:05:02.659Z,70.35
2022-10-28T10:07:36.128Z,69.02
2022-10-28T10:10:08.906Z,69.15
2022-10-28T10:12:38.330Z,69.10
2022-10-28T10:15:08.100Z,69.31
2022-10-28T10:17:42.690Z,69.65
2022-10-28T10:20:12.870Z,69.93
2022-10-28T10:22:42.872Z,69.34
2022-10-28T10:25:25.482Z,68.94
2022-10-28T10:27:55.286Z,69.45
2022-10-28T10:30:26.291Z,69.87
2022-10-28T10:32:56.283Z,69.20
2022-10-28T10:35:27.423Z,69.16
2022-10-28T10:37:57.864Z,69.09
2022-10-28T10:40:31.098Z,69.49
2022-10-28T10:43:22.084Z,69.73
2022-10-28T10:45:54.005Z,69.21
2022-10-28T10:48:23.743Z,68.65
2022-10-28T10:50:52.213Z,69.18
2022-10-28T10:53:23.862Z,69.08
2022-10-28T10:55:55.418Z,68.75
2022-10-28T10:58:26.147Z,69.41
2022-10-28T11:00:56.350Z,68.78
2022-10-28T11:03:29.863Z,69.22
2022-10-28T11:06:21.893Z,68.70
2022-10-28T11:08:49.273Z,69.54
2022-10-28T11:11:21.797Z,69.87
2022-10-28T11:14:03.306Z,68.91
2022-10-28T11:16:31.549Z,69.61
2022-10-28T11:19:20.391Z,69.49
2022-10-28T11:21:59.573Z,68.14
2022-10-28T11:24:44.594Z,68.43
2022-10-28T11:27:19.838Z,68.70
2022-10-28T11:29:49.457Z,68.56
2022-10-28T11:32:27.633Z,69.13
2022-10-28T11:35:27.006Z,68.74
2022-10-28T11:38:08.988Z,68.73
2022-10-28T11:40:45.733Z,68.63
2022-10-28T11:43:23.558Z,69.02
2022-10-28T11:46:00.715Z,68.99
2022-10-28T11:48:42.328Z,68.46
2022-10-28T11:51:25.381Z,68.94
2022-10-28T11:54:20.434Z,68.63
2022-10-28T11:56:50.896Z,69.11
2022-10-28T11:59:35.650Z,68.90
2022-10-28T12:02:20.772Z,69.10
2022-10-28T12:04:58.327Z,69.09
2022-10-28T12:07:54.292Z,70.02
2022-10-28T12:10:39.674Z,69.00
2022-10-28T12:13:14.448Z,69.50
2022-10-28T12:15:51.565Z,68.91
2022-10-28T12:18:24.198Z,69.33
2022-10-28T12:20:59.186Z,69.26
2022-10-28T12:23:31.504Z,68.85
2022-10-28T12:26:01.688Z,69.10
2022-10-28T12:28:34.713Z,69.06
2022-10-28T12:31:04.932Z,69.23
2022-10-28T12:33:39.202Z,68.92
2022-10-28T12:36:24.185Z,69.20
2022-10-28T12:39:01.904Z,68.64
2022-10-28T12:41:44.898Z,68.79
2022-10-28T12:44:16.139Z,68.66
2022-10-28T12:46:53.205Z,68.17
2022-10-28T12:49:32.288Z,68.47
2022-10-28T12:52:06.685Z,68.63
2022-10-28T12:54:53.546Z,68.23
2022-10-28T12:57:24.400Z,68.71
2022-10-28T12:59:55.995Z,68.23
2022-10-28T13:02:30.007Z,68.10
2022-10-28T13:04:59.167Z,68.71
2022-10-28T13:07:58.656Z,68.98
2022-10-28T13:10:33.963Z,68.53
2022-10-28T13:13:13.545Z,67.69
2022-10-28T13:16:06.468Z,68.53
2022-10-28T13:19:01.664Z,68.39
2022-10-28T13:21:41.296Z,68.47
2022-10-28T13:24:18.597Z,68.20
2022-10-28T13:26:49.301Z,67.65
2022-10-28T13:29:24.467Z,68.10
2022-10-28T13:31:54.377Z,68.05
2022-10-28T13:34:31.596Z,68.36
2022-10-28T13:37:03.404Z,68.33
2022-10-28T13:39:44.679Z,68.88
2022-10-28T13:42:48.653Z,68.98
2022-10-28T13:45:49.050Z,68.75
2022-10-28T13:48:49.280Z,68.22
2022-10-28T13:51:46.535Z,68.23
2022-10-28T13:54:31.868Z,67.97
2022-10-28T13:57:10.162Z,68.07
2022-10-28T13:59:56.772Z,68.22
2022-10-28T14:02:35.156Z,68.35
2022-10-28T14:05:07.268Z,69.29
2022-10-28T14:07:37.478Z,68.92
2022-10-28T14:10:22.088Z,68.67
2022-10-28T14:12:54.788Z,68.41
2022-10-28T14:15:28.139Z,68.56
2022-10-28T14:18:15.898Z,69.60
2022-10-28T14:20:59.120Z,68.90
2022-10-28T14:24:08.428Z,68.75
2022-10-28T14:27:29.003Z,69.17
2022-10-28T14:30:21.600Z,68.72
2022-10-28T14:33:12.533Z,68.73
2022-10-28T14:35:43.895Z,69.01
2022-10-28T14:38:52.694Z,68.86
2022-10-28T14:41:38.325Z,68.94
2022-10-28T14:44:18.944Z,69.08
2022-10-28T14:46:56.998Z,69.13
2022-10-28T14:49:28.563Z,69.45
2022-10-28T14:51:59.203Z,69.07
2022-10-28T14:54:39.598Z,69.13
2022-10-28T14:57:09.801Z,69.22
2022-10-28T14:59:41.314Z,69.39
2022-10-28T15:02:17.245Z,69.69
2022-10-28T15:04:49.547Z,69.45
2022-10-28T15:07:20.501Z,69.62
2022-10-28T15:09:53.579Z,69.58
2022-10-28T15:12:26.056Z,69.65
2022-10-28T15:14:56.173Z,70.07
2022-10-28T15:17:26.149Z,70.19
2022-10-28T15:19:57.099Z,70.13
2022-10-28T15:22:28.234Z,70.65
2022-10-28T15:25:00.650Z,70.29
2022-10-28T15:27:30.871Z,70.25
2022-10-28T15:29:59.529Z,71.05
2022-10-28T15:32:30.886Z,70.77
2022-10-28T15:35:00.697Z,70.77
2022-10-28T15:37:31.183Z,71.04
2022-10-28T15:40:14.523Z,71.26
2022-10-28T15:42:45.909Z,71.18
2022-10-28T15:45:20.005Z,71.19
2022-10-28T15:47:49.830Z,71.57
2022-10-28T15:50:33.839Z,71.61
2022-10-28T15:53:39.255Z,71.78
2022-10-28T15:56:23.364Z,72.03
2022-10-28T15:59:04.820Z,72.25
2022-10-28T16:01:41.672Z,72.39
2022-10-28T16:04:42.342Z,72.72
2022-10-28T16:07:12.303Z,72.70
2022-10-28T16:09:46.593Z,72.96
2022-10-28T16:12:16.897Z,72.97
2022-10-28T16:14:47.021Z,73.27
2022-10-28T16:17:18.108Z,73.32
2022-10-28T16:19:52.432Z,73.53
2022-10-28T16:22:23.277Z,73.65
2022-10-28T16:24:53.408Z,73.81
2022-10-28T16:27:23.932Z,73.92
2022-10-28T16:29:52.924Z,73.86
2022-10-28T16:32:26.317Z,73.96
2022-10-28T16:34:54.542Z,74.00
2022-10-28T16:37:27.007Z,74.23
2022-10-28T16:39:56.118Z,74.24
2022-10-28T16:42:24.996Z,74.28
2022-10-28T16:44:53.491Z,74.38
2022-10-28T16:47:24.297Z,74.41
2022-10-28T16:49:56.260Z,74.56
2022-10-28T16:52:29.820Z,74.21
2022-10-28T16:54:58.658Z,74.43
2022-10-28T16:57:27.193Z,74.44
2022-10-28T16:59:56.000Z,74.49
2022-10-28T17:02:27.804Z,74.44
2022-10-28T17:04:56.676Z,74.44
2022-10-28T17:07:24.972Z,74.40
2022-10-28T17:09:54.537Z,74.43
2022-10-28T17:12:24.749Z,74.51
2022-10-28T17:14:53.550Z,74.72
2022-10-28T17:17:21.784Z,74.70
2022-10-28T17:19:49.903Z,74.96
2022-10-28T17:22:18.093Z,75.06
2022-10-28T17:24:46.360Z,75.13
2022-10-28T17:27:16.030Z,75.23
2022-10-28T17:29:44.221Z,75.20
2022-10-28T17:32:12.651Z,75.35
2022-10-28T17:34:40.814Z,75.16
2022-10-28T17:37:09.015Z,75.23
2022-10-28T17:39:37.917Z,75.09
2022-10-28T17:42:08.710Z,75.21
2022-10-28T17:44:38.417Z,75.18
2022-10-28T17:47:06.633Z,75.14
2022-10-28T17:49:37.563Z,75.20
2022-10-28T17:52:05.773Z,75.23
2022-10-28T17:54:33.990Z,75.24
2022-10-28T17:57:03.338Z,75.24
2022-10-28T17:59:31.576Z,75.28
2022-10-28T18:02:02.220Z,75.31
2022-10-28T18:04:30.883Z,75.54
2022-10-28T18:06:59.380Z,75.70
2022-10-28T18:09:31.708Z,75.79
2022-10-28T18:12:01.986Z,75.80
2022-10-28T18:14:30.872Z,75.96
2022-10-28T18:16:59.093Z,76.18
2022-10-28T18:19:28.735Z,76.17
2022-10-28T18:21:57.018Z,76.25
2022-10-28T18:24:26.176Z,76.24
2022-10-28T18:26:56.938Z,76.37
2022-10-28T18:29:25.722Z,76.41
2022-10-28T18:31:53.880Z,76.46
2022-10-28T18:34:23.755Z,76.60
2022-10-28T18:36:53.478Z,76.56
2022-10-28T18:39:22.554Z,76.63
2022-10-28T18:41:51.572Z,76.55
2022-10-28T18:44:21.652Z,76.50
2022-10-28T18:46:51.288Z,76.34
2022-10-28T18:49:19.756Z,76.44
2022-10-28T18:51:47.858Z,76.65
2022-10-28T18:54:17.385Z,76.75
2022-10-28T18:56:47.884Z,76.79
2022-10-28T18:59:16.925Z,76.86
2022-10-28T19:01:46.985Z,76.91
2022-10-28T19:04:15.660Z,77.01
2022-10-28T19:06:43.806Z,77.10
2022-10-28T19:09:12.218Z,77.18
2022-10-28T19:11:41.849Z,77.33
2022-10-28T19:14:10.943Z,77.44
2022-10-28T19:16:39.151Z,77.51
2022-10-28T19:19:07.356Z,77.58
2022-10-28T19:21:35.727Z,77.66
2022-10-28T19:24:05.322Z,77.73
2022-10-28T19:26:34.933Z,77.60
2022-10-28T19:29:05.871Z,77.50
2022-10-28T19:31:36.901Z,77.25
2022-10-28T19:34:05.631Z,77.28
2022-10-28T19:36:33.855Z,77.34
2022-10-28T19:39:03.782Z,77.44
2022-10-28T19:41:32.196Z,77.47
2022-10-28T19:44:01.995Z,77.45
2022-10-28T19:46:33.652Z,77.44
2022-10-28T19:49:04.490Z,77.59
2022-10-28T19:51:34.793Z,77.71
2022-10-28T19:54:04.873Z,77.72
2022-10-28T19:56:34.820Z,77.76
2022-10-28T19:59:04.556Z,77.71
2022-10-28T20:01:36.558Z,77.85
2022-10-28T20:04:05.600Z,77.84
2022-10-28T20:06:38.010Z,78.07
2022-10-28T20:09:06.914Z,78.12
2022-10-28T20:11:37.460Z,77.99
2022-10-28T20:14:08.599Z,78.12
2022-10-28T20:16:39.550Z,78.17
2022-10-28T20:19:07.700Z,78.36
2022-10-28T20:21:37.256Z,78.37
2022-10-28T20:24:06.800Z,78.46
2022-10-28T20:26:37.494Z,78.40
2022-10-28T20:29:06.853Z,78.53
2022-10-28T20:31:35.383Z,78.59
2022-10-28T20:34:05.642Z,78.59
2022-10-28T20:36:35.334Z,78.63
2022-10-28T20:39:06.749Z,78.73
2022-10-28T20:41:36.245Z,78.72
2022-10-28T20:44:05.155Z,78.74
2022-10-28T20:46:33.974Z,78.82
2022-10-28T20:49:04.286Z,78.72
2022-10-28T20:51:33.863Z,79.09
2022-10-28T20:54:02.129Z,78.94
2022-10-28T20:56:31.890Z,78.75
2022-10-28T20:59:00.636Z,78.83
2022-10-28T21:01:30.904Z,78.98
2022-10-28T21:04:01.616Z,78.92
2022-10-28T21:06:31.899Z,79.01
2022-10-28T21:09:00.339Z,78.87
2022-10-28T21:11:32.923Z,78.72
2022-10-28T21:14:02.571Z,78.61
2022-10-28T21:16:31.147Z,78.75
2022-10-28T21:19:00.198Z,78.91
2022-10-28T21:21:29.550Z,78.90
2022-10-28T21:23:59.383Z,79.04
2022-10-28T21:26:27.775Z,79.02
2022-10-28T21:28:56.435Z,78.92
2022-10-28T21:31:25.048Z,78.95
2022-10-28T21:33:53.666Z,78.72
2022-10-28T21:36:23.043Z,78.99
2022-10-28T21:38:56.278Z,78.84
2022-10-28T21:41:26.097Z,78.82
2022-10-28T21:43:55.711Z,78.92
2022-10-28T21:46:24.596Z,78.93
2022-10-28T21:48:53.697Z,78.99
2022-10-28T21:51:22.470Z,78.99
2022-10-28T21:54:19.757Z,79.07
2022-10-28T21:56:50.600Z,79.07
2022-10-28T21:59:18.818Z,79.24
2022-10-28T22:01:52.204Z,79.01
2022-10-28T22:04:34.409Z,79.29
2022-10-28T22:07:02.664Z,79.14
2022-10-28T22:09:34.864Z,78.95
2022-10-28T22:12:08.055Z,79.17
2022-10-28T22:14:40.184Z,79.30
2022-10-28T22:17:11.890Z,79.09
2022-10-28T22:19:41.774Z,78.95
2022-10-28T22:22:10.032Z,79.00
2022-10-28T22:24:38.602Z,78.92
2022-10-28T22:27:11.100Z,78.94
2022-10-28T22:29:42.534Z,79.13
2022-10-28T22:32:10.860Z,79.02
2022-10-28T22:34:41.542Z,79.15
2022-10-28T22:37:10.611Z,79.05
2022-10-28T22:39:42.119Z,78.93
2022-10-28T22:42:13.730Z,79.53
2022-10-28T22:44:42.302Z,79.58
2022-10-28T22:47:11.423Z,79.31
2022-10-28T22:49:52.957Z,79.25
2022-10-28T22:52:24.261Z,79.55
2022-10-28T22:54:58.318Z,79.61
2022-10-28T22:57:27.898Z,79.55
2022-10-28T22:59:56.381Z,79.88
2022-10-28T23:02:39.156Z,79.93
2022-10-28T23:05:09.009Z,80.07
2022-10-28T23:07:37.282Z,80.10
2022-10-28T23:10:06.292Z,79.72
2022-10-28T23:12:35.835Z,79.75
2022-10-28T23:15:04.215Z,79.70
2022-10-28T23:17:32.484Z,79.62
2022-10-28T23:20:00.789Z,79.71
2022-10-28T23:22:30.166Z,80.11
2022-10-28T23:24:58.359Z,80.03
2022-10-28T23:27:26.674Z,79.91
2022-10-28T23:29:56.206Z,80.12
2022-10-28T23:32:25.413Z,80.17
2022-10-28T23:34:53.641Z,80.50
2022-10-28T23:37:21.806Z,80.27
2022-10-28T23:39:50.297Z,80.01
2022-10-28T23:42:18.481Z,80.05
2022-10-28T23:44:46.685Z,80.17
2022-10-28T23:47:16.727Z,80.18
2022-10-28T23:49:44.886Z,80.28
2022-10-28T23:52:13.300Z,80.25
2022-10-28T23:54:42.582Z,80.33
2022-10-28T23:57:10.776Z,80.49
2022-10-28T23:59:38.930Z,80.92
